sensor_id;sensor_type;location;lat;lon;timestamp;P1;durP1;ratioP1;P2;durP2;ratioP2
26780;SDS011;14366;49.184;8.054;2023-09-12T00:08:22;9.88;;;6.65;;
26780;SDS011;14366;49.184;8.054;2023-09-12T00:19:03;9.50;;;5.60;;
26780;SDS011;14366;49.184;8.054;2023-09-12T00:24:37;10.73;;;6.20;;
26780;SDS011;14366;49.184;8.054;2023-09-12T00:30:15;11.82;;;5.70;;
26780;SDS011;14366;49.184;8.054;2023-09-12T00:40:59;9.38;;;5.70;;
26780;SDS011;14366;49.184;8.054;2023-09-12T00:46:33;11.48;;;5.93;;
26780;SDS011;14366;49.184;8.054;2023-09-12T00:52:05;7.60;;;5.97;;
26780;SDS011;14366;49.184;8.054;2023-09-12T00:57:43;9.07;;;5.70;;
26780;SDS011;14366;49.184;8.054;2023-09-12T01:03:17;11.70;;;6.18;;
26780;SDS011;14366;49.184;8.054;2023-09-12T01:08:38;10.35;;;5.85;;
26780;SDS011;14366;49.184;8.054;2023-09-12T01:14:17;9.98;;;6.20;;
26780;SDS011;14366;49.184;8.054;2023-09-12T01:19:52;8.38;;;5.78;;
26780;SDS011;14366;49.184;8.054;2023-09-12T01:25:34;10.90;;;6.10;;
26780;SDS011;14366;49.184;8.054;2023-09-12T01:31:11;12.60;;;6.00;;
26780;SDS011;14366;49.184;8.054;2023-09-12T01:36:46;10.07;;;6.00;;
26780;SDS011;14366;49.184;8.054;2023-09-12T01:42:08;14.06;;;5.66;;
26780;SDS011;14366;49.184;8.054;2023-09-12T01:47:45;10.45;;;5.85;;
26780;SDS011;14366;49.184;8.054;2023-09-12T01:53:18;9.93;;;6.23;;
26780;SDS011;14366;49.184;8.054;2023-09-12T01:58:50;12.10;;;5.62;;
26780;SDS011;14366;49.184;8.054;2023-09-12T02:04:27;12.15;;;6.00;;
26780;SDS011;14366;49.184;8.054;2023-09-12T02:25:50;10.77;;;5.95;;
26780;SDS011;14366;49.184;8.054;2023-09-12T02:31:25;12.00;;;6.55;;
26780;SDS011;14366;49.184;8.054;2023-09-12T02:37:02;13.34;;;6.86;;
26780;SDS011;14366;49.184;8.054;2023-09-12T02:42:24;11.20;;;6.62;;
26780;SDS011;14366;49.184;8.054;2023-09-12T02:48:00;10.80;;;6.65;;
26780;SDS011;14366;49.184;8.054;2023-09-12T02:53:35;11.57;;;6.40;;
26780;SDS011;14366;49.184;8.054;2023-09-12T02:59:09;7.50;;;5.95;;
26780;SDS011;14366;49.184;8.054;2023-09-12T03:04:44;12.95;;;6.95;;
26780;SDS011;14366;49.184;8.054;2023-09-12T03:10:19;12.95;;;6.75;;
26780;SDS011;14366;49.184;8.054;2023-09-12T03:15:41;8.98;;;6.58;;
26780;SDS011;14366;49.184;8.054;2023-09-12T03:21:16;9.90;;;6.90;;
26780;SDS011;14366;49.184;8.054;2023-09-12T03:37:06;16.20;;;9.00;;
26780;SDS011;14366;49.184;8.054;2023-09-12T03:47:52;10.70;;;6.45;;
26780;SDS011;14366;49.184;8.054;2023-09-12T03:53:28;11.60;;;6.70;;
26780;SDS011;14366;49.184;8.054;2023-09-12T03:59:02;13.80;;;6.40;;
26780;SDS011;14366;49.184;8.054;2023-09-12T04:04:35;12.60;;;6.97;;
26780;SDS011;14366;49.184;8.054;2023-09-12T04:10:11;9.00;;;6.55;;
26780;SDS011;14366;49.184;8.054;2023-09-12T04:15:45;10.68;;;6.80;;
26780;SDS011;14366;49.184;8.054;2023-09-12T04:21:06;9.27;;;6.23;;
26780;SDS011;14366;49.184;8.054;2023-09-12T04:31:32;12.20;;;7.40;;
26780;SDS011;14366;49.184;8.054;2023-09-12T04:37:08;12.15;;;6.45;;
26780;SDS011;14366;49.184;8.054;2023-09-12T04:42:43;10.75;;;7.15;;
26780;SDS011;14366;49.184;8.054;2023-09-12T04:48:18;9.70;;;6.95;;
26780;SDS011;14366;49.184;8.054;2023-09-12T04:53:54;12.35;;;7.80;;
26780;SDS011;14366;49.184;8.054;2023-09-12T04:59:29;7.90;;;7.10;;
26780;SDS011;14366;49.184;8.054;2023-09-12T05:05:06;11.76;;;7.54;;
26780;SDS011;14366;49.184;8.054;2023-09-12T05:10:43;18.07;;;7.40;;
26780;SDS011;14366;49.184;8.054;2023-09-12T05:16:18;13.50;;;7.45;;
26780;SDS011;14366;49.184;8.054;2023-09-12T05:21:54;11.65;;;7.10;;
26780;SDS011;14366;49.184;8.054;2023-09-12T05:27:29;9.80;;;7.15;;
26780;SDS011;14366;49.184;8.054;2023-09-12T05:43:33;9.82;;;7.12;;
26780;SDS011;14366;49.184;8.054;2023-09-12T05:49:09;9.40;;;7.20;;
26780;SDS011;14366;49.184;8.054;2023-09-12T05:54:30;12.80;;;7.18;;
26780;SDS011;14366;49.184;8.054;2023-09-12T05:59:51;11.03;;;6.87;;
26780;SDS011;14366;49.184;8.054;2023-09-12T06:05:30;9.80;;;7.36;;
26780;SDS011;14366;49.184;8.054;2023-09-12T06:10:50;12.35;;;7.60;;
26780;SDS011;14366;49.184;8.054;2023-09-12T06:16:29;11.98;;;7.70;;
26780;SDS011;14366;49.184;8.054;2023-09-12T06:22:07;9.95;;;7.50;;
26780;SDS011;14366;49.184;8.054;2023-09-12T06:32:50;13.15;;;7.90;;
26780;SDS011;14366;49.184;8.054;2023-09-12T06:38:24;16.63;;;7.63;;
26780;SDS011;14366;49.184;8.054;2023-09-12T06:43:48;16.00;;;7.66;;
26780;SDS011;14366;49.184;8.054;2023-09-12T06:54:29;14.05;;;7.28;;
26780;SDS011;14366;49.184;8.054;2023-09-12T07:00:02;11.27;;;6.78;;
26780;SDS011;14366;49.184;8.054;2023-09-12T07:05:25;15.23;;;8.00;;
26780;SDS011;14366;49.184;8.054;2023-09-12T07:10:48;11.65;;;6.80;;
26780;SDS011;14366;49.184;8.054;2023-09-12T07:16:25;13.55;;;7.20;;
26780;SDS011;14366;49.184;8.054;2023-09-12T07:22:01;10.30;;;7.00;;
26780;SDS011;14366;49.184;8.054;2023-09-12T07:27:24;12.75;;;6.87;;
26780;SDS011;14366;49.184;8.054;2023-09-12T07:32:58;16.20;;;7.40;;
26780;SDS011;14366;49.184;8.054;2023-09-12T07:43:39;15.35;;;7.22;;
26780;SDS011;14366;49.184;8.054;2023-09-12T07:49:13;10.40;;;7.25;;
26780;SDS011;14366;49.184;8.054;2023-09-12T07:54:36;13.40;;;6.92;;
26780;SDS011;14366;49.184;8.054;2023-09-12T07:59:59;10.07;;;6.87;;
26780;SDS011;14366;49.184;8.054;2023-09-12T08:05:33;11.30;;;6.30;;
26780;SDS011;14366;49.184;8.054;2023-09-12T08:10:50;11.63;;;6.70;;
26780;SDS011;14366;49.184;8.054;2023-09-12T08:16:27;12.88;;;6.68;;
26780;SDS011;14366;49.184;8.054;2023-09-12T08:22:01;13.32;;;6.97;;
26780;SDS011;14366;49.184;8.054;2023-09-12T08:27:36;10.15;;;6.45;;
26780;SDS011;14366;49.184;8.054;2023-09-12T08:38:03;14.63;;;7.20;;
26780;SDS011;14366;49.184;8.054;2023-09-12T08:43:38;15.03;;;7.07;;
26780;SDS011;14366;49.184;8.054;2023-09-12T08:48:57;12.57;;;7.40;;
26780;SDS011;14366;49.184;8.054;2023-09-12T08:54:52;12.56;;;6.36;;
26780;SDS011;14366;49.184;8.054;2023-09-12T09:00:25;9.20;;;6.50;;
26780;SDS011;14366;49.184;8.054;2023-09-12T09:05:59;10.10;;;7.00;;
26780;SDS011;14366;49.184;8.054;2023-09-12T09:16:40;11.65;;;7.10;;
26780;SDS011;14366;49.184;8.054;2023-09-12T09:27:32;13.55;;;6.97;;
26780;SDS011;14366;49.184;8.054;2023-09-12T09:33:05;10.95;;;6.97;;
26780;SDS011;14366;49.184;8.054;2023-09-12T09:38:45;9.70;;;7.30;;
26780;SDS011;14366;49.184;8.054;2023-09-12T09:44:20;11.13;;;7.10;;
26780;SDS011;14366;49.184;8.054;2023-09-12T09:49:53;9.80;;;6.80;;
26780;SDS011;14366;49.184;8.054;2023-09-12T10:00:36;15.47;;;7.30;;
26780;SDS011;14366;49.184;8.054;2023-09-12T10:11:32;10.73;;;6.67;;
26780;SDS011;14366;49.184;8.054;2023-09-12T10:22:14;9.65;;;6.45;;
26780;SDS011;14366;49.184;8.054;2023-09-12T10:32:52;9.20;;;6.75;;
26780;SDS011;14366;49.184;8.054;2023-09-12T10:38:28;10.80;;;5.80;;
26780;SDS011;14366;49.184;8.054;2023-09-12T11:00:35;6.30;;;5.70;;
26780;SDS011;14366;49.184;8.054;2023-09-12T11:05:54;8.48;;;6.07;;
26780;SDS011;14366;49.184;8.054;2023-09-12T11:11:54;9.20;;;6.05;;
26780;SDS011;14366;49.184;8.054;2023-09-12T11:17:26;9.70;;;6.15;;
26780;SDS011;14366;49.184;8.054;2023-09-12T11:22:45;7.46;;;5.82;;
26780;SDS011;14366;49.184;8.054;2023-09-12T11:28:21;10.57;;;6.03;;
26780;SDS011;14366;49.184;8.054;2023-09-12T11:33:53;8.73;;;6.07;;
26780;SDS011;14366;49.184;8.054;2023-09-12T11:39:30;8.82;;;6.00;;
26780;SDS011;14366;49.184;8.054;2023-09-12T11:50:48;7.72;;;5.50;;
26780;SDS011;14366;49.184;8.054;2023-09-12T11:56:21;11.15;;;6.10;;
26780;SDS011;14366;49.184;8.054;2023-09-12T12:01:56;8.95;;;5.70;;
26780;SDS011;14366;49.184;8.054;2023-09-12T12:07:35;8.15;;;5.65;;
26780;SDS011;14366;49.184;8.054;2023-09-12T12:18:52;7.00;;;5.15;;
26780;SDS011;14366;49.184;8.054;2023-09-12T12:24:35;7.25;;;5.20;;
26780;SDS011;14366;49.184;8.054;2023-09-12T12:30:13;8.95;;;5.90;;
26780;SDS011;14366;49.184;8.054;2023-09-12T12:35:48;7.18;;;5.18;;
26780;SDS011;14366;49.184;8.054;2023-09-12T12:41:24;7.60;;;5.60;;
26780;SDS011;14366;49.184;8.054;2023-09-12T12:47:03;7.05;;;5.15;;
26780;SDS011;14366;49.184;8.054;2023-09-12T12:52:35;8.84;;;5.52;;
26780;SDS011;14366;49.184;8.054;2023-09-12T12:58:11;11.90;;;5.60;;
26780;SDS011;14366;49.184;8.054;2023-09-12T13:03:51;8.18;;;5.15;;
26780;SDS011;14366;49.184;8.054;2023-09-12T13:09:26;7.95;;;5.55;;
26780;SDS011;14366;49.184;8.054;2023-09-12T13:15:01;5.68;;;4.65;;
26780;SDS011;14366;49.184;8.054;2023-09-12T13:20:37;6.35;;;4.47;;
26780;SDS011;14366;49.184;8.054;2023-09-12T13:26:13;7.90;;;4.25;;
26780;SDS011;14366;49.184;8.054;2023-09-12T13:36:56;5.97;;;4.45;;
26780;SDS011;14366;49.184;8.054;2023-09-12T13:42:31;5.25;;;4.75;;
26780;SDS011;14366;49.184;8.054;2023-09-12T13:47:52;5.46;;;4.90;;
26780;SDS011;14366;49.184;8.054;2023-09-12T13:53:17;7.05;;;4.85;;
26780;SDS011;14366;49.184;8.054;2023-09-12T13:58:51;7.34;;;5.00;;
26780;SDS011;14366;49.184;8.054;2023-09-12T14:04:11;7.25;;;4.65;;
26780;SDS011;14366;49.184;8.054;2023-09-12T14:14:53;7.55;;;4.60;;
26780;SDS011;14366;49.184;8.054;2023-09-12T14:25:32;5.10;;;4.30;;
26780;SDS011;14366;49.184;8.054;2023-09-12T14:36:13;5.40;;;4.32;;
26780;SDS011;14366;49.184;8.054;2023-09-12T14:46:54;6.93;;;4.60;;
26780;SDS011;14366;49.184;8.054;2023-09-12T14:52:30;8.75;;;4.62;;
26780;SDS011;14366;49.184;8.054;2023-09-12T14:58:06;7.90;;;4.70;;
26780;SDS011;14366;49.184;8.054;2023-09-12T15:03:27;5.57;;;4.85;;
26780;SDS011;14366;49.184;8.054;2023-09-12T15:08:50;7.10;;;4.50;;
26780;SDS011;14366;49.184;8.054;2023-09-12T15:14:25;5.87;;;4.70;;
26780;SDS011;14366;49.184;8.054;2023-09-12T15:19:46;7.18;;;4.40;;
26780;SDS011;14366;49.184;8.054;2023-09-12T15:25:22;7.40;;;4.80;;
26780;SDS011;14366;49.184;8.054;2023-09-12T15:31:00;17.10;;;5.20;;
26780;SDS011;14366;49.184;8.054;2023-09-12T15:36:36;5.40;;;4.82;;
26780;SDS011;14366;49.184;8.054;2023-09-12T15:42:12;8.95;;;5.00;;
26780;SDS011;14366;49.184;8.054;2023-09-12T15:47:49;6.80;;;5.30;;
26780;SDS011;14366;49.184;8.054;2023-09-12T15:53:24;7.00;;;5.32;;
26780;SDS011;14366;49.184;8.054;2023-09-12T15:59:01;9.10;;;5.45;;
26780;SDS011;14366;49.184;8.054;2023-09-12T16:04:38;9.36;;;5.10;;
26780;SDS011;14366;49.184;8.054;2023-09-12T16:09:59;8.90;;;5.20;;
26780;SDS011;14366;49.184;8.054;2023-09-12T16:15:36;6.43;;;4.90;;
26780;SDS011;14366;49.184;8.054;2023-09-12T16:21:12;4.95;;;4.43;;
26780;SDS011;14366;49.184;8.054;2023-09-12T16:31:38;8.15;;;5.10;;
26780;SDS011;14366;49.184;8.054;2023-09-12T16:42:16;7.03;;;4.78;;
26780;SDS011;14366;49.184;8.054;2023-09-12T16:47:38;7.10;;;4.72;;
26780;SDS011;14366;49.184;8.054;2023-09-12T16:53:14;6.95;;;4.75;;
26780;SDS011;14366;49.184;8.054;2023-09-12T16:58:35;5.02;;;4.40;;
26780;SDS011;14366;49.184;8.054;2023-09-12T17:04:12;6.30;;;4.50;;
26780;SDS011;14366;49.184;8.054;2023-09-12T17:09:47;7.55;;;4.20;;
26780;SDS011;14366;49.184;8.054;2023-09-12T17:15:22;4.65;;;4.20;;
26780;SDS011;14366;49.184;8.054;2023-09-12T17:20:43;6.43;;;5.03;;
26780;SDS011;14366;49.184;8.054;2023-09-12T17:26:19;6.97;;;4.50;;
26780;SDS011;14366;49.184;8.054;2023-09-12T17:31:55;6.82;;;4.90;;
26780;SDS011;14366;49.184;8.054;2023-09-12T17:42:36;6.57;;;4.32;;
26780;SDS011;14366;49.184;8.054;2023-09-12T17:48:09;5.37;;;3.90;;
26780;SDS011;14366;49.184;8.054;2023-09-12T17:53:32;6.07;;;4.43;;
26780;SDS011;14366;49.184;8.054;2023-09-12T17:58:53;4.85;;;4.30;;
26780;SDS011;14366;49.184;8.054;2023-09-12T18:04:30;5.47;;;3.80;;
26780;SDS011;14366;49.184;8.054;2023-09-12T18:09:50;4.70;;;3.50;;
26780;SDS011;14366;49.184;8.054;2023-09-12T18:15:27;4.40;;;3.80;;
26780;SDS011;14366;49.184;8.054;2023-09-12T18:21:03;5.56;;;3.70;;
26780;SDS011;14366;49.184;8.054;2023-09-12T18:26:23;4.90;;;3.42;;
26780;SDS011;14366;49.184;8.054;2023-09-12T18:31:46;5.60;;;3.70;;
26780;SDS011;14366;49.184;8.054;2023-09-12T18:37:21;4.95;;;3.45;;
26780;SDS011;14366;49.184;8.054;2023-09-12T18:42:58;3.97;;;3.27;;
26780;SDS011;14366;49.184;8.054;2023-09-12T18:48:25;7.80;;;3.60;;
26780;SDS011;14366;49.184;8.054;2023-09-12T18:53:59;4.56;;;4.02;;
26780;SDS011;14366;49.184;8.054;2023-09-12T19:10:14;4.90;;;4.40;;
26780;SDS011;14366;49.184;8.054;2023-09-12T19:15:46;8.02;;;4.57;;
26780;SDS011;14366;49.184;8.054;2023-09-12T19:26:32;6.45;;;4.45;;
26780;SDS011;14366;49.184;8.054;2023-09-12T19:32:09;8.95;;;4.35;;
26780;SDS011;14366;49.184;8.054;2023-09-12T19:37:30;5.22;;;4.05;;
26780;SDS011;14366;49.184;8.054;2023-09-12T19:42:56;5.83;;;3.90;;
26780;SDS011;14366;49.184;8.054;2023-09-12T19:48:30;5.40;;;3.82;;
26780;SDS011;14366;49.184;8.054;2023-09-12T19:54:11;5.10;;;4.20;;
26780;SDS011;14366;49.184;8.054;2023-09-12T20:04:35;5.30;;;3.80;;
26780;SDS011;14366;49.184;8.054;2023-09-12T20:10:14;5.20;;;3.40;;
26780;SDS011;14366;49.184;8.054;2023-09-12T20:20:54;4.47;;;3.10;;
26780;SDS011;14366;49.184;8.054;2023-09-12T20:26:28;4.95;;;3.35;;
26780;SDS011;14366;49.184;8.054;2023-09-12T20:32:08;4.78;;;3.05;;
26780;SDS011;14366;49.184;8.054;2023-09-12T20:37:49;5.00;;;3.35;;
26780;SDS011;14366;49.184;8.054;2023-09-12T20:43:24;5.55;;;3.33;;
26780;SDS011;14366;49.184;8.054;2023-09-12T20:48:59;4.20;;;2.90;;
26780;SDS011;14366;49.184;8.054;2023-09-12T20:54:22;3.65;;;2.80;;
26780;SDS011;14366;49.184;8.054;2023-09-12T20:59:56;3.20;;;2.62;;
26780;SDS011;14366;49.184;8.054;2023-09-12T21:05:16;3.35;;;2.70;;
26780;SDS011;14366;49.184;8.054;2023-09-12T21:10:53;4.53;;;3.10;;
26780;SDS011;14366;49.184;8.054;2023-09-12T21:16:29;3.22;;;2.92;;
26780;SDS011;14366;49.184;8.054;2023-09-12T21:21:50;4.18;;;2.70;;
26780;SDS011;14366;49.184;8.054;2023-09-12T21:27:27;3.17;;;2.87;;
26780;SDS011;14366;49.184;8.054;2023-09-12T21:33:01;3.83;;;2.87;;
26780;SDS011;14366;49.184;8.054;2023-09-12T21:38:22;3.40;;;2.85;;
26780;SDS011;14366;49.184;8.054;2023-09-12T21:43:59;3.58;;;3.13;;
26780;SDS011;14366;49.184;8.054;2023-09-12T21:49:34;3.50;;;3.20;;
26780;SDS011;14366;49.184;8.054;2023-09-12T21:55:09;5.40;;;3.00;;
26780;SDS011;14366;49.184;8.054;2023-09-12T22:00:47;4.85;;;2.85;;
26780;SDS011;14366;49.184;8.054;2023-09-12T22:06:24;3.60;;;2.97;;
26780;SDS011;14366;49.184;8.054;2023-09-12T22:11:56;4.23;;;3.30;;
26780;SDS011;14366;49.184;8.054;2023-09-12T22:17:14;3.40;;;2.70;;
26780;SDS011;14366;49.184;8.054;2023-09-12T22:22:47;6.90;;;3.20;;
26780;SDS011;14366;49.184;8.054;2023-09-12T22:28:23;4.23;;;2.87;;
26780;SDS011;14366;49.184;8.054;2023-09-12T22:33:44;3.45;;;2.60;;
26780;SDS011;14366;49.184;8.054;2023-09-12T22:39:19;5.10;;;2.70;;
26780;SDS011;14366;49.184;8.054;2023-09-12T22:49:45;3.20;;;2.80;;
26780;SDS011;14366;49.184;8.054;2023-09-12T22:55:21;3.40;;;2.73;;
26780;SDS011;14366;49.184;8.054;2023-09-12T23:00:57;3.60;;;3.00;;
26780;SDS011;14366;49.184;8.054;2023-09-12T23:06:18;3.75;;;3.00;;
26780;SDS011;14366;49.184;8.054;2023-09-12T23:11:54;3.13;;;2.83;;
26780;SDS011;14366;49.184;8.054;2023-09-12T23:17:14;4.30;;;3.30;;
26780;SDS011;14366;49.184;8.054;2023-09-12T23:27:56;4.97;;;3.08;;
26780;SDS011;14366;49.184;8.054;2023-09-12T23:33:31;5.37;;;3.00;;
26780;SDS011;14366;49.184;8.054;2023-09-12T23:38:51;3.57;;;2.93;;
26780;SDS011;14366;49.184;8.054;2023-09-12T23:44:12;3.17;;;2.78;;
26780;SDS011;14366;49.184;8.054;2023-09-12T23:49:50;3.20;;;2.90;;
26780;SDS011;14366;49.184;8.054;2023-09-12T23:55:26;7.55;;;3.40;;
